Terminal Aerodrome Forecast
Issued by NWS

Home | Current Version | Previous Version | Text Only | Print | Product List | Glossary On
Versions: 1 2 3 4 5 6 7 8 9 10 11 12 13
289
FTUS45 KFGZ 292344
TAFSEZ
TAF
KSEZ 292344Z 3000/3024 33010KT P6SM BKN110
     FM300400 04006KT P6SM SCT110 BKN200
     FM301800 22008KT P6SM SCT090 BKN110
      TEMPO 3023/3024 VRB10G20KT -TSRA BKN090CB=

USA.gov is the U.S. government's official web portal to all federal, state and local government web resources and services.